Spofford, New Hampshire
Current Conditions -  °F | °C
As of 4:35 PM on Friday 24 Oct 2014 (Local Time) from KEEN Reporting Station
Overcast Overcast  
Wind Chill: 46°   Ceiling: 2200
Heat Index: 48°   Visibility: 10mi
Dew Point: 36°   Wind: 5mph
Humidity: 62%   Direction: 350°N
Pressure: 29.74"   Gusts: NA
Location:  42.91°N, 72.42°W
Report Text: KEEN 242035Z AUTO 35004KT 10SM OVC022 09/02 A2974 RMK AO1
Loading
Personal Weather Stations






























Interactive Weather Map
Tropical Storm Tracking
New forecast layout! Learn more

10-Day Weather Forecast

Advertisements
Track Severe Weather on mobile